Madison, Florida
Current Conditions -  °F | °C
As of 9:53 AM on Monday 22 Dec 2014 (Local Time) from KVLD Reporting Station
Moderate Fog Moderate Fog  
Wind Chill: 53°   Ceiling: 200
Heat Index: 53°   Visibility: 0.25mi
Dew Point: 53°   Wind: 3mph
Humidity: 100%   Direction: 90°E
Pressure: 30"   Gusts: NA
Location:  30.47°N, 83.42°W
Report Text: KVLD 221453Z 09003KT 1/4SM FG VV002 12/12 A3000 RMK AO2 SLP167 T01170117 51002
Loading
Personal Weather Stations






























Interactive Weather Map New forecast layout! Learn more

10-Day Weather Forecast

Advertisements
Track Severe Weather on mobile